Flight Track Log - Related Links

Times and Time Zones

All times are in EDT time to prevent confusion due to time zone crossing. See the SWA3313 flight status page for this flight to view local times or setup timezone preferences in your user account.

Time Position Orientation Groundspeed Altitude Reporting Facility
EDT Latitude Longitude Course Direction KTS MPH feet Rate Location/Type
Tue 08:01:57 PM 39.1333 -76.6833 218° Southwest 198 228 2,400  Level Potomac TRACON
Tue 08:02:57 PM 39.1667 -76.7333 311° West 227 261 5,200 2,750 Climbing Potomac TRACON
Tue 08:03:57 PM 39.1833 -76.8333 282° West 278 320 7,900 2,950 Climbing Potomac TRACON
Tue 08:04:57 PM 39.2000 -76.9333 282° West 297 342 11,100 3,300 Climbing Potomac TRACON
Tue 08:05:57 PM 39.2000 -77.0500 270° West 345 397 14,500 3,300 Climbing Potomac TRACON
Tue 08:06:57 PM 39.1833 -77.1667 260° West 371 427 17,700 3,050 Climbing Potomac TRACON
Tue 08:07:00 PM 39.0215 -77.2952 218° Southwest  Level FlightAware Approximate
Tue 08:07:57 PM 39.1000 -77.2500 218° Southwest 394 453 20,600  Level Potomac TRACON
Tue 08:08:57 PM 39.0000 -77.3333 213° Southwest 425 489 23,000 1,193 Climbing Potomac TRACON
Tue 08:10:38 PM 38.8203 -77.4222 201° Southwest 443 510 23,800 1,148 Climbing Washington Center
Tue 08:11:39 PM 38.7269 -77.5183 219° Southwest 430 495 26,100 1,587 Climbing Washington Center
Tue 08:12:39 PM 38.6356 -77.6303 224° Southwest 436 502 27,000 600 Climbing Washington Center
Tue 08:13:39 PM 38.5439 -77.7392 223° Southwest 448 516 27,300 508 Climbing Washington Center
Tue 08:14:37 PM 38.4522 -77.8506 224° Southwest 454 522 28,000 559 Climbing Washington Center
Tue 08:15:37 PM 38.3606 -77.9617 224° Southwest 459 528 28,400 1,091 Climbing Washington Center
Tue 08:16:38 PM 38.2664 -78.0722 223° Southwest 459 528 30,200 1,587 Climbing Washington Center
Tue 08:17:38 PM 38.1703 -78.1853 223° Southwest 464 534 31,600 893 Climbing Washington Center
Tue 08:18:39 PM 38.0717 -78.3006 223° Southwest 469 540 32,000 202 Climbing Washington Center
Tue 08:19:37 PM 37.9775 -78.4131 223° Southwest 475 547 32,000  Level Washington Center
Tue 08:20:37 PM 37.8789 -78.5253 222° Southwest 475 547 32,000  Level Washington Center
Tue 08:21:38 PM 37.7781 -78.6394 222° Southwest 475 547 32,000  Level Washington Center
Tue 08:22:38 PM 37.6858 -78.7303 218° Southwest 475 547 32,000  Level Washington Center
Tue 08:23:38 PM 37.5811 -78.8256 216° Southwest 475 547 32,000  Level Washington Center
Tue 08:24:39 PM 37.4783 -78.9233 217° Southwest 475 547 32,000  Level Washington Center
Tue 08:25:37 PM 37.3733 -79.0206 216° Southwest 470 541 32,000  Level Washington Center
Tue 08:26:38 PM 37.2725 -79.1178 218° Southwest 470 541 32,000  Level Washington Center
Tue 08:27:39 PM 37.1694 -79.2122 216° Southwest 464 534 32,000 -303 Level Washington Center
Tue 08:28:37 PM 37.0558 -79.3189 217° Southwest 464 534 31,400 -807 Descending Washington Center
Tue 08:29:38 PM 36.9525 -79.4178 217° Southwest 469 540 30,400 -976 Descending Washington Center
Tue 08:30:40 PM 36.8492 -79.5139 217° Southwest 469 540 29,400 -1,008 Descending Washington Center
Tue 08:31:37 PM 36.7500 -79.6072 217° Southwest 463 533 28,400 -1,017 Descending Washington Center
Tue 08:32:38 PM 36.6575 -79.6906 216° Southwest 463 533 27,400 -992 Descending Washington Center
Tue 08:33:38 PM 36.5606 -79.7811 217° Southwest 458 527 26,400 -1,079 Descending Washington Center
Tue 08:34:07 PM 36.4972 -79.8344 214° Southwest 454 522 25,800 -1,685 Descending Atlanta Center
Tue 08:35:07 PM 36.3961 -79.9275 217° Southwest 454 522 23,900 -1,900 Descending Atlanta Center
Tue 08:36:07 PM 36.3031 -80.0144 217° Southwest 448 516 22,000 -1,000 Descending Atlanta Center
Tue 08:37:07 PM 36.2219 -80.0856 215° Southwest 427 491 21,900 -800 Descending Atlanta Center
Tue 08:38:07 PM 36.1306 -80.1619 214° Southwest 416 479 20,400 50 Descending Atlanta Center
Tue 08:39:07 PM 36.0453 -80.2328 214° Southwest 395 455 22,000 -2,160 Climbing Atlanta Center
Tue 08:40:12 PM 35.9517 -80.3167 216° Southwest 345 397 15,900 -4,000 Descending Atlanta Center
Tue 08:41:01 PM 35.8947 -80.3656 215° Southwest 339 390 14,400 -1,673 Descending Atlanta Center
Tue 08:41:56 PM 35.8256 -80.4250 215° Southwest 322 371 13,000 -1,238 Descending Atlanta Center
Tue 08:43:07 PM 35.7442 -80.4900 213° Southwest 325 374 11,800 -916 Descending Atlanta Center
Tue 08:44:07 PM 35.6769 -80.5467 214° Southwest 312 359 11,000 -429 Descending Atlanta Center
Tue 08:44:59 PM 35.6158 -80.6003 216° Southwest 275 316 11,000 -500 Level Atlanta Center
Tue 08:46:07 PM 35.5486 -80.6542 213° Southwest 292 336 10,000 -488 Descending Atlanta Center
Tue 08:47:02 PM 35.4894 -80.7075 216° Southwest 263 303 10,000  Level Atlanta Center
Tue 08:48:07 PM 35.4261 -80.7561 212° Southwest 266 306 10,000  Level Atlanta Center
Tue 08:49:07 PM 35.3669 -80.8042 214° Southwest 259 298 10,000 -102 Level Atlanta Center
Tue 08:50:05 PM 35.3094 -80.8422 208° Southwest 250 288 9,800 -504 Descending Atlanta Center
Tue 08:51:06 PM 35.2406 -80.8372 177° South 250 288 9,000 -689 Descending Atlanta Center
Tue 08:52:07 PM 35.1694 -80.8297 175° South 249 287 8,400 -787 Descending Atlanta Center
Tue 08:53:08 PM 35.1067 -80.8272 178° South 219 252 7,400 -1,082 Descending Atlanta Center
Tue 08:54:09 PM 35.0478 -80.8117 168° South 213 245 6,200 -1,180 Descending Atlanta Center
Tue 08:55:10 PM 34.9850 -80.7989 171° South 211 243 5,000 -1,082 Descending Atlanta Center
Tue 08:56:11 PM 34.9678 -80.8603 251° West 208 239 4,000 -492 Descending Atlanta Center
Tue 08:57:12 PM 34.9919 -80.9103 301° West 197 227 4,000 -98 Level Atlanta Center
Tue 08:58:13 PM 35.0403 -80.9236 347° North 175 201 3,800 -590 Descending Atlanta Center
Tue 08:59:14 PM 35.0947 -80.9267 357° North 179 206 2,800 -934 Descending Atlanta Center
Tue 09:00:15 PM 35.1406 -80.9325 354° North 164 189 1,900 -738 Descending Atlanta Center
Tue 09:01:16 PM 35.1761 -80.9361 355° North 129 148 1,300 -590 Descending Atlanta Center
Tue 09:03:00 PM 35.2000 -80.9333 North  Level FlightAware Approximate
Tue 09:10:00 PM 35.2137 -80.9491 North  Level Estimated

Login

Don't have an account? Register now (free) for customized features, flight alerts, and more!